createdAt,value
2023-03-14T00:01:15.691Z,2.73
2023-03-14T00:03:43.130Z,3.13
2023-03-14T00:06:11.465Z,3.00
2023-03-14T00:08:38.731Z,2.90
2023-03-14T00:11:11.723Z,3.33
2023-03-14T00:13:39.071Z,3.00
2023-03-14T00:16:08.969Z,2.70
2023-03-14T00:18:36.339Z,2.53
2023-03-14T00:21:05.348Z,3.07
2023-03-14T00:23:33.768Z,3.20
2023-03-14T00:26:05.908Z,2.87
2023-03-14T00:28:32.753Z,2.60
2023-03-14T00:30:59.648Z,3.00
2023-03-14T00:33:26.908Z,3.10
2023-03-14T00:35:59.750Z,2.80
2023-03-14T00:38:27.493Z,3.10
2023-03-14T00:40:54.386Z,2.90
2023-03-14T00:43:22.821Z,3.20
2023-03-14T00:45:51.135Z,2.90
2023-03-14T00:48:18.896Z,2.90
2023-03-14T00:50:46.326Z,2.60
2023-03-14T00:53:13.463Z,2.60
2023-03-14T00:55:43.448Z,2.30
2023-03-14T00:58:11.914Z,2.80
2023-03-14T01:00:39.415Z,2.80
2023-03-14T01:03:07.082Z,2.33
2023-03-14T01:05:34.568Z,2.40
2023-03-14T01:08:02.096Z,2.53
2023-03-14T01:10:29.313Z,2.40
2023-03-14T01:12:56.520Z,2.73
2023-03-14T01:15:23.493Z,2.47
2023-03-14T01:17:50.644Z,2.30
2023-03-14T01:20:18.065Z,2.80
2023-03-14T01:22:45.668Z,2.50
2023-03-14T01:25:15.784Z,2.13
2023-03-14T01:27:42.932Z,2.43
2023-03-14T01:30:10.930Z,2.77
2023-03-14T01:32:38.320Z,2.50
2023-03-14T01:35:05.820Z,2.30
2023-03-14T01:37:32.888Z,2.10
2023-03-14T01:39:59.826Z,2.40
2023-03-14T01:42:26.654Z,2.13
2023-03-14T01:44:57.978Z,2.23
2023-03-14T01:47:25.451Z,2.50
2023-03-14T01:50:06.942Z,2.07
2023-03-14T01:52:37.826Z,2.20
2023-03-14T01:55:13.073Z,2.13
2023-03-14T01:57:49.009Z,2.10
2023-03-14T02:00:22.755Z,2.57
2023-03-14T02:02:56.991Z,2.47
2023-03-14T02:05:31.447Z,2.50
2023-03-14T02:08:00.005Z,2.43
2023-03-14T02:10:41.247Z,2.30
2023-03-14T02:13:08.583Z,2.33
2023-03-14T02:15:36.016Z,2.30
2023-03-14T02:18:04.554Z,2.10
2023-03-14T02:20:50.464Z,2.47
2023-03-14T02:23:29.789Z,2.13
2023-03-14T02:26:05.393Z,2.63
2023-03-14T02:28:32.197Z,2.10
2023-03-14T02:30:59.080Z,2.50
2023-03-14T02:33:26.488Z,2.13
2023-03-14T02:36:02.858Z,2.20
2023-03-14T02:38:36.811Z,2.20
2023-03-14T02:41:04.833Z,2.00
2023-03-14T02:43:31.653Z,2.53
2023-03-14T02:45:59.590Z,2.20
2023-03-14T02:48:54.059Z,2.07
2023-03-14T02:51:22.171Z,1.60
2023-03-14T02:53:49.058Z,2.00
2023-03-14T02:56:15.965Z,2.07
2023-03-14T02:58:42.798Z,1.63
2023-03-14T03:01:09.730Z,2.10
2023-03-14T03:03:36.649Z,2.10
2023-03-14T03:06:04.150Z,1.97
2023-03-14T03:08:31.033Z,2.00
2023-03-14T03:10:58.898Z,1.73
2023-03-14T03:13:25.955Z,2.23
2023-03-14T03:15:52.827Z,2.10
2023-03-14T03:18:19.741Z,2.10
2023-03-14T03:20:46.892Z,1.90
2023-03-14T03:23:13.995Z,2.00
2023-03-14T03:25:40.896Z,1.80
2023-03-14T03:28:09.075Z,2.10
2023-03-14T03:30:40.846Z,1.97
2023-03-14T03:33:08.341Z,1.63
2023-03-14T03:35:35.438Z,2.00
2023-03-14T03:38:02.306Z,1.90
2023-03-14T03:40:29.150Z,2.20
2023-03-14T03:42:56.181Z,1.83
2023-03-14T03:45:23.050Z,2.30
2023-03-14T03:47:49.877Z,2.30
2023-03-14T03:50:17.011Z,1.90
2023-03-14T03:52:43.797Z,1.73
2023-03-14T03:55:10.907Z,1.80
2023-03-14T03:57:37.809Z,1.90
2023-03-14T04:00:06.964Z,1.80
2023-03-14T04:02:34.021Z,2.10
2023-03-14T04:05:01.192Z,1.80
2023-03-14T04:07:28.192Z,1.70
2023-03-14T04:09:55.413Z,1.90
2023-03-14T04:12:22.227Z,2.20
2023-03-14T04:14:49.089Z,1.90
2023-03-14T04:17:15.971Z,1.90
2023-03-14T04:19:43.292Z,2.00
2023-03-14T04:22:10.413Z,1.70
2023-03-14T04:24:37.239Z,1.70
2023-03-14T04:27:04.136Z,1.80
2023-03-14T04:29:30.937Z,2.00
2023-03-14T04:31:57.818Z,2.10
2023-03-14T04:34:24.619Z,2.03
2023-03-14T04:36:51.544Z,1.87
2023-03-14T04:39:18.425Z,2.10
2023-03-14T04:41:46.775Z,2.00
2023-03-14T04:44:13.650Z,1.50
2023-03-14T04:46:41.659Z,2.07
2023-03-14T04:49:08.636Z,1.70
2023-03-14T04:51:35.506Z,1.87
2023-03-14T04:54:02.414Z,2.20
2023-03-14T04:56:29.283Z,2.03
2023-03-14T04:58:56.268Z,2.03
2023-03-14T05:01:23.378Z,2.00
2023-03-14T05:03:50.226Z,1.87
2023-03-14T05:06:17.272Z,1.93
2023-03-14T05:08:44.130Z,2.10
2023-03-14T05:11:12.741Z,1.80
2023-03-14T05:13:40.434Z,2.00
2023-03-14T05:16:09.974Z,1.53
2023-03-14T05:18:37.492Z,2.20
2023-03-14T05:21:05.126Z,1.90
2023-03-14T05:23:32.003Z,1.57
2023-03-14T05:25:59.020Z,1.87
2023-03-14T05:28:25.946Z,2.13
2023-03-14T05:30:52.929Z,1.60
2023-03-14T05:33:19.867Z,2.13
2023-03-14T05:35:46.770Z,1.90
2023-03-14T05:38:13.627Z,1.80
2023-03-14T05:40:40.616Z,1.60
2023-03-14T05:43:09.176Z,1.80
2023-03-14T05:45:36.617Z,1.60
2023-03-14T05:48:03.745Z,2.30
2023-03-14T05:50:30.824Z,1.87
2023-03-14T05:52:57.657Z,2.40
2023-03-14T05:55:24.587Z,1.60
2023-03-14T05:57:51.469Z,1.70
2023-03-14T06:00:18.817Z,1.70
2023-03-14T06:02:46.010Z,1.70
2023-03-14T06:05:13.279Z,2.13
2023-03-14T06:07:40.319Z,1.83
2023-03-14T06:10:09.102Z,2.13
2023-03-14T06:12:35.926Z,1.80
2023-03-14T06:15:03.013Z,1.53
2023-03-14T06:17:29.985Z,1.83
2023-03-14T06:19:56.921Z,2.23
2023-03-14T06:22:23.977Z,1.90
2023-03-14T06:24:50.882Z,1.80
2023-03-14T06:27:17.790Z,1.80
2023-03-14T06:29:44.646Z,2.00
2023-03-14T06:32:11.563Z,2.07
2023-03-14T06:34:39.546Z,1.80
2023-03-14T06:37:06.857Z,1.93
2023-03-14T06:39:33.774Z,2.20
2023-03-14T06:42:00.807Z,1.70
2023-03-14T06:44:27.610Z,2.57
2023-03-14T06:46:55.406Z,2.47
2023-03-14T06:49:22.787Z,2.07
2023-03-14T06:51:49.835Z,2.13
2023-03-14T06:54:16.688Z,2.30
2023-03-14T06:56:43.596Z,2.30
2023-03-14T06:59:10.483Z,2.60
2023-03-14T07:01:37.513Z,2.30
2023-03-14T07:04:04.627Z,2.27
2023-03-14T07:06:31.547Z,2.23
2023-03-14T07:08:58.776Z,2.27
2023-03-14T07:11:26.066Z,2.17
2023-03-14T07:13:53.369Z,2.60
2023-03-14T07:16:21.093Z,2.67
2023-03-14T07:18:48.088Z,2.70
2023-03-14T07:21:14.921Z,3.00
2023-03-14T07:23:42.221Z,2.27
2023-03-14T07:26:09.107Z,2.70
2023-03-14T07:28:35.977Z,2.80
2023-03-14T07:31:02.931Z,2.50
2023-03-14T07:33:29.790Z,2.67
2023-03-14T07:35:56.666Z,2.23
2023-03-14T07:38:23.549Z,2.60
2023-03-14T07:40:50.543Z,2.57
2023-03-14T07:43:17.499Z,2.77
2023-03-14T07:45:50.818Z,2.10
2023-03-14T07:48:18.394Z,2.60
2023-03-14T07:50:45.264Z,2.40
2023-03-14T07:53:12.123Z,2.80
2023-03-14T07:55:40.535Z,2.83
2023-03-14T07:58:07.606Z,2.80
2023-03-14T08:00:34.616Z,3.07
2023-03-14T08:03:01.562Z,3.10
2023-03-14T08:05:28.541Z,3.00
2023-03-14T08:07:55.547Z,2.83
2023-03-14T08:10:23.306Z,2.90
2023-03-14T08:12:51.723Z,2.90
2023-03-14T08:15:18.596Z,4.57
2023-03-14T08:17:45.434Z,4.30
2023-03-14T08:20:14.202Z,4.03
2023-03-14T08:22:41.137Z,3.80
2023-03-14T08:25:08.567Z,3.80
2023-03-14T08:27:35.423Z,4.27
2023-03-14T08:30:02.422Z,3.70
2023-03-14T08:32:30.070Z,3.90
2023-03-14T08:34:57.218Z,4.13
2023-03-14T08:37:27.161Z,4.23
2023-03-14T08:39:54.870Z,4.27
2023-03-14T08:42:21.783Z,3.87
2023-03-14T08:44:48.637Z,4.50
2023-03-14T08:47:15.617Z,5.10
2023-03-14T08:49:42.675Z,4.20
2023-03-14T08:52:09.640Z,4.53
2023-03-14T08:54:36.514Z,5.00
2023-03-14T08:57:03.710Z,4.60
2023-03-14T08:59:30.605Z,4.30
2023-03-14T09:01:57.479Z,4.47
2023-03-14T09:04:24.437Z,4.90
2023-03-14T09:06:51.293Z,3.73
2023-03-14T09:09:18.244Z,4.30
2023-03-14T09:11:45.106Z,4.10
2023-03-14T09:14:11.996Z,4.77
2023-03-14T09:16:38.929Z,3.60
2023-03-14T09:19:06.839Z,4.23
2023-03-14T09:21:33.807Z,4.30
2023-03-14T09:24:00.644Z,4.10
2023-03-14T09:26:27.509Z,4.27
2023-03-14T09:28:54.769Z,3.57
2023-03-14T09:31:22.537Z,3.70
2023-03-14T09:33:49.537Z,4.37
2023-03-14T09:36:16.436Z,4.37
2023-03-14T09:38:43.331Z,4.67
2023-03-14T09:41:19.573Z,4.10
2023-03-14T09:43:52.073Z,4.23
2023-03-14T09:46:20.026Z,4.00
2023-03-14T09:48:47.119Z,3.63
2023-03-14T09:51:21.478Z,3.47
2023-03-14T09:53:49.946Z,3.60
2023-03-14T09:56:21.394Z,3.60
2023-03-14T09:59:00.222Z,4.00
2023-03-14T10:01:32.349Z,4.40
2023-03-14T10:04:07.975Z,3.60
2023-03-14T10:06:36.191Z,3.70
2023-03-14T10:09:04.529Z,4.10
2023-03-14T10:11:31.407Z,4.40
2023-03-14T10:14:11.122Z,4.50
2023-03-14T10:16:42.968Z,3.90
2023-03-14T10:19:17.096Z,4.37
2023-03-14T10:21:55.038Z,4.50
2023-03-14T10:24:31.689Z,3.87
2023-03-14T10:27:05.642Z,4.00
2023-03-14T10:29:34.415Z,4.27
2023-03-14T10:32:02.759Z,4.20
2023-03-14T10:34:32.843Z,4.20
2023-03-14T10:37:10.149Z,4.27
2023-03-14T10:39:54.638Z,4.47
2023-03-14T10:42:31.057Z,4.10
2023-03-14T10:45:01.462Z,4.17
2023-03-14T10:47:29.596Z,4.30
2023-03-14T10:49:58.407Z,4.30
2023-03-14T10:52:35.662Z,4.63
2023-03-14T10:55:14.022Z,4.70
2023-03-14T10:57:42.105Z,4.70
2023-03-14T11:00:19.601Z,3.90
2023-03-14T11:03:01.647Z,5.03
2023-03-14T11:05:58.665Z,5.37
2023-03-14T11:08:32.961Z,5.43
2023-03-14T11:11:18.303Z,5.40
2023-03-14T11:14:25.305Z,5.00
2023-03-14T11:17:27.641Z,5.20
2023-03-14T11:20:18.607Z,5.70
2023-03-14T11:23:02.930Z,4.93
2023-03-14T11:26:03.765Z,5.43
2023-03-14T11:28:53.680Z,5.17
2023-03-14T11:31:29.908Z,4.67
2023-03-14T11:34:25.934Z,5.53
2023-03-14T11:37:00.349Z,4.83
2023-03-14T11:39:42.781Z,5.37
2023-03-14T11:42:16.483Z,5.57
2023-03-14T11:44:49.006Z,4.87
2023-03-14T11:47:28.285Z,5.07
2023-03-14T11:50:02.002Z,5.10
2023-03-14T11:52:34.215Z,5.30
2023-03-14T11:55:22.098Z,5.00
2023-03-14T11:57:52.578Z,5.83
2023-03-14T12:00:25.565Z,5.47
2023-03-14T12:03:15.347Z,4.80
2023-03-14T12:06:11.998Z,5.20
2023-03-14T12:08:44.650Z,4.87
2023-03-14T12:11:24.715Z,4.70
2023-03-14T12:13:53.912Z,5.10
2023-03-14T12:16:23.791Z,4.60
2023-03-14T12:18:54.694Z,4.73
2023-03-14T12:21:42.038Z,5.43
2023-03-14T12:24:26.688Z,5.47
2023-03-14T12:26:56.452Z,4.47
2023-03-14T12:29:23.876Z,5.17
2023-03-14T12:32:08.881Z,5.17
2023-03-14T12:34:48.653Z,5.30
2023-03-14T12:37:45.946Z,5.23
2023-03-14T12:40:21.869Z,5.40
2023-03-14T12:42:54.544Z,4.80
2023-03-14T12:45:27.227Z,5.20
2023-03-14T12:47:54.039Z,5.43
2023-03-14T12:50:26.823Z,4.77
2023-03-14T12:53:08.849Z,5.93
2023-03-14T12:55:47.988Z,5.10
2023-03-14T12:58:33.514Z,4.67
2023-03-14T13:01:04.317Z,4.33
2023-03-14T13:03:55.175Z,4.53
2023-03-14T13:06:54.963Z,4.57
2023-03-14T13:09:32.640Z,5.03
2023-03-14T13:12:12.613Z,4.60
2023-03-14T13:14:49.591Z,4.57
2023-03-14T13:17:34.424Z,5.07
2023-03-14T13:20:12.430Z,5.00
2023-03-14T13:22:39.930Z,4.83
2023-03-14T13:25:11.014Z,5.50
2023-03-14T13:27:38.805Z,4.63
2023-03-14T13:30:24.251Z,5.67
2023-03-14T13:32:53.437Z,4.63
2023-03-14T13:35:31.204Z,5.07
2023-03-14T13:38:16.055Z,5.50
2023-03-14T13:40:46.608Z,5.00
2023-03-14T13:43:29.847Z,4.17
2023-03-14T13:46:08.701Z,5.23
2023-03-14T13:48:41.753Z,4.70
2023-03-14T13:51:13.507Z,4.30
2023-03-14T13:53:52.185Z,5.00
2023-03-14T13:56:21.184Z,4.60
2023-03-14T13:58:48.799Z,4.90
2023-03-14T14:01:28.148Z,4.33
2023-03-14T14:03:58.367Z,5.50
2023-03-14T14:06:31.803Z,4.87
2023-03-14T14:09:02.566Z,5.40
2023-03-14T14:12:17.389Z,5.10
2023-03-14T14:14:57.184Z,5.43
2023-03-14T14:17:33.447Z,5.00
2023-03-14T14:20:04.519Z,5.13
2023-03-14T14:22:31.640Z,5.20
2023-03-14T14:24:58.541Z,4.77
2023-03-14T14:27:40.326Z,5.37
2023-03-14T14:30:23.818Z,5.70
2023-03-14T14:32:51.921Z,5.10
2023-03-14T14:35:27.470Z,5.17
2023-03-14T14:37:54.763Z,5.70
2023-03-14T14:40:32.261Z,5.83
2023-03-14T14:43:06.478Z,4.90
2023-03-14T14:45:36.056Z,5.00
2023-03-14T14:48:02.883Z,5.50
2023-03-14T14:50:48.147Z,5.30
2023-03-14T14:53:39.913Z,5.40
2023-03-14T14:56:23.608Z,5.00
2023-03-14T14:58:50.583Z,4.90
2023-03-14T15:01:25.105Z,4.67
2023-03-14T15:03:53.892Z,4.37
2023-03-14T15:06:21.314Z,4.83
2023-03-14T15:08:49.762Z,4.63
2023-03-14T15:11:23.755Z,5.07
2023-03-14T15:13:52.012Z,4.90
2023-03-14T15:16:21.974Z,4.47
2023-03-14T15:18:58.887Z,4.73
2023-03-14T15:21:27.790Z,4.60
2023-03-14T15:23:55.007Z,4.70
2023-03-14T15:26:25.281Z,5.03
2023-03-14T15:28:52.176Z,4.13
2023-03-14T15:31:20.315Z,4.60
2023-03-14T15:33:47.947Z,4.40
2023-03-14T15:36:24.266Z,4.47
2023-03-14T15:38:52.678Z,4.50
2023-03-14T15:41:20.230Z,4.07
2023-03-14T15:43:47.559Z,4.43
2023-03-14T15:46:15.688Z,5.17
2023-03-14T15:48:42.713Z,4.30
2023-03-14T15:51:09.592Z,4.17
2023-03-14T15:53:39.449Z,4.67
2023-03-14T15:56:08.655Z,3.97
2023-03-14T15:58:35.587Z,3.80
2023-03-14T16:01:03.688Z,4.40
2023-03-14T16:03:30.788Z,4.23
2023-03-14T16:05:57.681Z,4.60
2023-03-14T16:08:26.900Z,3.83
2023-03-14T16:10:53.783Z,4.33
2023-03-14T16:13:20.758Z,4.37
2023-03-14T16:15:55.569Z,4.13
2023-03-14T16:18:22.770Z,4.87
2023-03-14T16:20:59.928Z,4.97
2023-03-14T16:23:27.921Z,4.30
2023-03-14T16:25:55.889Z,5.10
2023-03-14T16:28:23.471Z,4.40
2023-03-14T16:30:50.340Z,4.37
2023-03-14T16:33:18.014Z,4.70
2023-03-14T16:36:00.881Z,4.63
2023-03-14T16:38:31.763Z,5.23
2023-03-14T16:41:04.092Z,4.90
2023-03-14T16:43:31.842Z,5.13
2023-03-14T16:46:00.174Z,4.00
2023-03-14T16:48:28.414Z,4.40
2023-03-14T16:50:55.742Z,5.43
2023-03-14T16:53:23.725Z,4.90
2023-03-14T16:55:51.588Z,4.90
2023-03-14T16:58:18.814Z,4.47
2023-03-14T17:00:46.812Z,5.20
2023-03-14T17:03:14.105Z,4.70
2023-03-14T17:05:52.138Z,5.00
2023-03-14T17:08:21.097Z,4.90
2023-03-14T17:10:48.162Z,4.60
2023-03-14T17:13:15.065Z,4.50
2023-03-14T17:15:53.633Z,4.83
2023-03-14T17:18:20.569Z,4.63
2023-03-14T17:20:47.552Z,3.73
2023-03-14T17:23:14.786Z,5.10
2023-03-14T17:25:41.658Z,4.40
2023-03-14T17:28:08.531Z,4.77
2023-03-14T17:30:35.901Z,4.27
2023-03-14T17:33:02.936Z,4.80
2023-03-14T17:35:29.883Z,4.60
2023-03-14T17:37:56.925Z,4.40
2023-03-14T17:40:24.294Z,3.93
2023-03-14T17:42:51.832Z,5.00
2023-03-14T17:45:19.034Z,5.47
2023-03-14T17:47:45.878Z,4.33
2023-03-14T17:50:13.258Z,4.87
2023-03-14T17:52:40.705Z,4.40
2023-03-14T17:55:08.793Z,4.23
2023-03-14T17:57:40.297Z,4.63
2023-03-14T18:00:11.903Z,4.60
2023-03-14T18:02:41.517Z,4.43
2023-03-14T18:05:09.165Z,5.67
2023-03-14T18:07:37.340Z,4.60
2023-03-14T18:10:06.376Z,4.70
2023-03-14T18:12:33.394Z,4.20
2023-03-14T18:15:01.318Z,4.20
2023-03-14T18:17:28.190Z,3.60
2023-03-14T18:19:56.433Z,4.30
2023-03-14T18:22:23.653Z,3.90
2023-03-14T18:24:51.094Z,4.23
2023-03-14T18:27:18.119Z,4.23
2023-03-14T18:29:45.394Z,4.50
2023-03-14T18:32:12.464Z,4.57
2023-03-14T18:34:39.457Z,4.57
2023-03-14T18:37:06.370Z,4.20
2023-03-14T18:39:33.284Z,4.43
2023-03-14T18:42:00.146Z,5.27
2023-03-14T18:44:27.058Z,4.70
2023-03-14T18:46:54.200Z,4.87
2023-03-14T18:49:21.679Z,4.07
2023-03-14T18:51:48.607Z,4.33
2023-03-14T18:54:15.446Z,5.10
2023-03-14T18:56:42.322Z,4.60
2023-03-14T18:59:10.529Z,4.70
2023-03-14T19:01:38.194Z,4.53
2023-03-14T19:04:05.782Z,4.83
2023-03-14T19:06:33.119Z,4.70
2023-03-14T19:09:01.307Z,4.57
2023-03-14T19:11:28.492Z,4.20
2023-03-14T19:13:55.340Z,5.03
2023-03-14T19:16:22.647Z,5.27
2023-03-14T19:18:49.864Z,4.90
2023-03-14T19:21:27.333Z,5.20
2023-03-14T19:23:54.265Z,4.73
2023-03-14T19:26:21.780Z,5.43
2023-03-14T19:28:48.728Z,4.80
2023-03-14T19:31:15.756Z,4.60
2023-03-14T19:33:43.310Z,4.90
2023-03-14T19:36:24.860Z,5.20
2023-03-14T19:38:53.175Z,4.97
2023-03-14T19:41:21.960Z,5.37
2023-03-14T19:43:48.873Z,5.53
2023-03-14T19:46:15.916Z,5.70
2023-03-14T19:48:45.607Z,5.70
2023-03-14T19:51:14.015Z,5.87
2023-03-14T19:53:42.096Z,5.87
2023-03-14T19:56:10.162Z,6.07
2023-03-14T19:58:39.600Z,5.40
2023-03-14T20:01:08.208Z,5.07
2023-03-14T20:03:36.643Z,5.97
2023-03-14T20:06:09.181Z,4.90
2023-03-14T20:08:36.137Z,5.47
2023-03-14T20:11:08.669Z,5.03
2023-03-14T20:13:35.915Z,4.97
2023-03-14T20:16:07.687Z,4.73
2023-03-14T20:18:34.540Z,5.13
2023-03-14T20:21:05.081Z,5.50
2023-03-14T20:23:32.130Z,5.03
2023-03-14T20:26:02.497Z,4.37
2023-03-14T20:28:29.337Z,4.87
2023-03-14T20:30:56.365Z,4.93
2023-03-14T20:33:23.361Z,4.30
2023-03-14T20:35:55.939Z,4.77
2023-03-14T20:38:24.300Z,4.90
2023-03-14T20:40:51.197Z,4.50
2023-03-14T20:43:18.107Z,4.30
2023-03-14T20:45:51.925Z,4.50
2023-03-14T20:48:18.789Z,4.10
2023-03-14T20:50:48.001Z,4.40
2023-03-14T20:53:15.095Z,3.80
2023-03-14T20:55:42.172Z,3.47
2023-03-14T20:58:12.876Z,3.50
2023-03-14T21:00:50.598Z,4.07
2023-03-14T21:03:18.461Z,3.30
2023-03-14T21:05:46.941Z,3.97
2023-03-14T21:08:15.641Z,4.33
2023-03-14T21:10:42.594Z,3.90
2023-03-14T21:13:09.469Z,4.10
2023-03-14T21:15:38.092Z,3.63
2023-03-14T21:18:05.859Z,3.80
2023-03-14T21:20:34.681Z,3.40
2023-03-14T21:23:01.508Z,3.50
2023-03-14T21:25:28.691Z,3.60
2023-03-14T21:27:55.620Z,3.70
2023-03-14T21:30:23.436Z,3.20
2023-03-14T21:32:50.657Z,3.20
2023-03-14T21:35:18.084Z,3.20
2023-03-14T21:37:45.172Z,3.73
2023-03-14T21:40:13.758Z,3.20
2023-03-14T21:42:40.759Z,3.50
2023-03-14T21:45:08.553Z,3.60
2023-03-14T21:47:35.579Z,2.77
2023-03-14T21:50:02.355Z,3.30
2023-03-14T21:52:29.281Z,2.60
2023-03-14T21:54:56.101Z,2.60
2023-03-14T21:57:30.202Z,3.00
2023-03-14T21:59:57.172Z,2.70
2023-03-14T22:02:24.392Z,2.87
2023-03-14T22:04:51.267Z,2.80
2023-03-14T22:07:18.883Z,2.90
2023-03-14T22:09:46.903Z,3.00
2023-03-14T22:12:19.382Z,2.80
2023-03-14T22:14:47.928Z,2.77
2023-03-14T22:17:15.460Z,2.40
2023-03-14T22:19:42.371Z,2.90
2023-03-14T22:22:09.349Z,3.13
2023-03-14T22:24:36.456Z,2.97
2023-03-14T22:27:03.425Z,2.57
2023-03-14T22:29:30.479Z,3.00
2023-03-14T22:31:57.393Z,2.57
2023-03-14T22:34:29.046Z,2.70
2023-03-14T22:36:56.276Z,2.30
2023-03-14T22:39:23.082Z,1.93
2023-03-14T22:41:49.970Z,1.97
2023-03-14T22:44:16.884Z,1.40
2023-03-14T22:46:43.738Z,1.40
2023-03-14T22:49:10.621Z,0.97
2023-03-14T22:51:37.472Z,1.03
2023-03-14T22:54:04.451Z,0.80
2023-03-14T22:56:31.709Z,1.27
2023-03-14T22:59:02.445Z,1.30
2023-03-14T23:01:29.281Z,1.50
2023-03-14T23:03:56.148Z,1.20
2023-03-14T23:06:23.100Z,1.13
2023-03-14T23:08:51.058Z,0.90
2023-03-14T23:11:18.049Z,1.10
2023-03-14T23:13:46.263Z,1.00
2023-03-14T23:16:15.003Z,1.33
2023-03-14T23:18:42.678Z,1.30
2023-03-14T23:21:18.502Z,1.17
2023-03-14T23:23:47.061Z,1.00
2023-03-14T23:26:24.193Z,1.10
2023-03-14T23:28:51.946Z,1.10
2023-03-14T23:31:18.860Z,1.30
2023-03-14T23:33:45.999Z,1.20
2023-03-14T23:36:14.414Z,1.30
2023-03-14T23:38:43.117Z,1.30
2023-03-14T23:41:14.770Z,1.27
2023-03-14T23:43:48.573Z,1.10
2023-03-14T23:46:16.511Z,1.30
2023-03-14T23:48:46.922Z,1.23
2023-03-14T23:51:14.878Z,0.83
2023-03-14T23:53:42.633Z,1.20
2023-03-14T23:56:11.695Z,1.07
2023-03-14T23:58:38.796Z,1.07
